createdAt,value
2022-10-23T00:01:49.941Z,4.67
2022-10-23T00:04:20.033Z,4.50
2022-10-23T00:06:48.264Z,3.97
2022-10-23T00:09:19.359Z,4.70
2022-10-23T00:11:48.492Z,3.80
2022-10-23T00:14:17.857Z,4.20
2022-10-23T00:16:45.658Z,4.00
2022-10-23T00:19:13.716Z,5.03
2022-10-23T00:21:41.549Z,4.27
2022-10-23T00:26:43.757Z,4.17
2022-10-23T00:29:11.903Z,4.57
2022-10-23T00:31:39.604Z,4.47
2022-10-23T00:34:08.454Z,4.60
2022-10-23T00:36:36.530Z,4.23
2022-10-23T00:39:04.976Z,4.70
2022-10-23T00:41:33.343Z,4.37
2022-10-23T00:44:07.544Z,4.90
2022-10-23T00:46:36.951Z,5.03
2022-10-23T00:49:06.249Z,4.50
2022-10-23T00:51:39.352Z,4.83
2022-10-23T00:54:24.424Z,3.60
2022-10-23T00:56:56.037Z,4.13
2022-10-23T00:59:25.479Z,5.20
2022-10-23T01:01:53.430Z,4.90
2022-10-23T01:04:21.744Z,4.30
2022-10-23T01:06:58.093Z,4.83
2022-10-23T01:09:32.574Z,4.60
2022-10-23T01:12:08.990Z,3.80
2022-10-23T01:14:44.093Z,4.00
2022-10-23T01:17:20.970Z,4.90
2022-10-23T01:20:00.318Z,3.90
2022-10-23T01:22:42.356Z,4.03
2022-10-23T01:25:24.537Z,4.20
2022-10-23T01:28:01.526Z,4.20
2022-10-23T01:30:30.892Z,3.97
2022-10-23T01:33:05.154Z,3.93
2022-10-23T01:35:38.029Z,4.03
2022-10-23T01:38:11.674Z,3.90
2022-10-23T01:40:45.685Z,4.93
2022-10-23T01:43:19.086Z,3.47
2022-10-23T01:45:50.926Z,4.20
2022-10-23T01:48:22.715Z,3.63
2022-10-23T01:50:51.730Z,4.10
2022-10-23T01:53:20.887Z,4.57
2022-10-23T01:55:50.387Z,4.10
2022-10-23T01:58:21.139Z,3.90
2022-10-23T02:00:51.760Z,4.00
2022-10-23T02:03:20.205Z,4.17
2022-10-23T02:05:48.060Z,3.43
2022-10-23T02:08:16.081Z,4.07
2022-10-23T02:10:50.349Z,4.00
2022-10-23T02:13:26.600Z,4.20
2022-10-23T02:16:04.580Z,4.27
2022-10-23T02:18:39.264Z,4.03
2022-10-23T02:21:11.160Z,3.70
2022-10-23T02:23:45.091Z,4.13
2022-10-23T02:26:18.480Z,4.10
2022-10-23T02:28:51.680Z,4.03
2022-10-23T02:31:23.179Z,5.00
2022-10-23T02:33:50.951Z,4.03
2022-10-23T02:36:19.668Z,4.30
2022-10-23T02:38:47.649Z,3.83
2022-10-23T02:41:26.177Z,3.70
2022-10-23T02:44:08.766Z,3.80
2022-10-23T02:46:47.321Z,4.20
2022-10-23T02:49:20.609Z,4.00
2022-10-23T02:52:00.885Z,4.30
2022-10-23T02:54:41.043Z,3.77
2022-10-23T02:57:17.891Z,4.20
2022-10-23T02:59:51.123Z,4.20
2022-10-23T03:02:22.419Z,3.90
2022-10-23T03:04:51.921Z,4.00
2022-10-23T03:07:21.099Z,3.90
2022-10-23T03:09:48.826Z,3.50
2022-10-23T03:12:16.422Z,4.20
2022-10-23T03:14:43.980Z,3.83
2022-10-23T03:17:12.896Z,4.00
2022-10-23T03:19:40.509Z,3.57
2022-10-23T03:22:08.066Z,3.60
2022-10-23T03:24:35.678Z,4.07
2022-10-23T03:27:03.191Z,3.53
2022-10-23T03:29:30.725Z,4.00
2022-10-23T03:31:58.269Z,3.37
2022-10-23T03:34:27.184Z,3.50
2022-10-23T03:36:54.847Z,3.43
2022-10-23T03:39:22.532Z,3.63
2022-10-23T03:41:50.298Z,3.73
2022-10-23T03:44:18.242Z,3.97
2022-10-23T03:46:46.007Z,3.63
2022-10-23T03:49:13.656Z,3.60
2022-10-23T03:51:44.031Z,3.80
2022-10-23T03:54:11.776Z,4.20
2022-10-23T03:56:39.446Z,3.17
2022-10-23T03:59:07.022Z,3.47
2022-10-23T04:01:34.732Z,3.37
2022-10-23T04:04:02.504Z,3.60
2022-10-23T04:06:30.101Z,3.20
2022-10-23T04:08:59.240Z,3.23
2022-10-23T04:11:26.868Z,3.30
2022-10-23T04:13:54.504Z,3.33
2022-10-23T04:16:22.199Z,3.30
2022-10-23T04:18:49.858Z,3.73
2022-10-23T04:21:17.706Z,2.90
2022-10-23T04:23:45.599Z,3.37
2022-10-23T04:26:14.546Z,2.67
2022-10-23T04:28:42.357Z,2.90
2022-10-23T04:31:10.035Z,3.47
2022-10-23T04:33:37.792Z,3.20
2022-10-23T04:36:06.172Z,4.40
2022-10-23T04:38:33.797Z,2.77
2022-10-23T04:41:01.467Z,2.57
2022-10-23T04:43:30.404Z,3.00
2022-10-23T04:45:57.955Z,3.10
2022-10-23T04:48:28.410Z,2.80
2022-10-23T04:50:58.343Z,2.90
2022-10-23T04:53:26.111Z,3.00
2022-10-23T04:55:55.821Z,2.80
2022-10-23T04:58:24.416Z,3.10
2022-10-23T05:00:54.160Z,2.97
2022-10-23T05:03:23.505Z,3.10
2022-10-23T05:05:55.123Z,2.60
2022-10-23T05:08:24.111Z,2.87
2022-10-23T05:10:52.440Z,2.97
2022-10-23T05:13:20.774Z,3.00
2022-10-23T05:15:48.653Z,2.97
2022-10-23T05:18:22.264Z,3.40
2022-10-23T05:20:53.470Z,2.83
2022-10-23T05:23:25.874Z,2.90
2022-10-23T05:25:53.545Z,3.10
2022-10-23T05:28:21.210Z,3.77
2022-10-23T05:30:49.578Z,2.97
2022-10-23T05:33:18.788Z,3.70
2022-10-23T05:35:46.755Z,3.10
2022-10-23T05:38:15.658Z,2.80
2022-10-23T05:40:43.415Z,3.10
2022-10-23T05:43:10.951Z,2.80
2022-10-23T05:45:38.552Z,2.57
2022-10-23T05:48:22.125Z,2.50
2022-10-23T05:50:51.804Z,3.00
2022-10-23T05:53:19.335Z,3.17
2022-10-23T05:55:46.882Z,3.23
2022-10-23T05:58:14.492Z,2.97
2022-10-23T06:00:42.030Z,3.23
2022-10-23T06:03:09.628Z,2.90
2022-10-23T06:05:37.191Z,3.27
2022-10-23T06:08:06.524Z,2.37
2022-10-23T06:10:34.401Z,2.93
2022-10-23T06:13:02.064Z,2.90
2022-10-23T06:15:29.596Z,2.70
2022-10-23T06:18:00.942Z,2.63
2022-10-23T06:20:28.939Z,2.87
2022-10-23T06:22:56.570Z,2.57
2022-10-23T06:25:25.588Z,3.80
2022-10-23T06:27:53.222Z,2.53
2022-10-23T06:30:20.805Z,2.20
2022-10-23T06:32:48.350Z,2.60
2022-10-23T06:35:16.093Z,2.50
2022-10-23T06:37:43.761Z,2.37
2022-10-23T06:40:11.723Z,3.20
2022-10-23T06:42:40.874Z,2.40
2022-10-23T06:45:09.347Z,2.27
2022-10-23T06:47:36.876Z,2.63
2022-10-23T06:50:05.120Z,2.40
2022-10-23T06:52:46.664Z,2.40
2022-10-23T06:55:14.929Z,2.50
2022-10-23T06:57:45.021Z,2.30
2022-10-23T07:00:14.039Z,2.00
2022-10-23T07:02:41.888Z,2.53
2022-10-23T07:05:13.468Z,3.63
2022-10-23T07:07:41.672Z,2.70
2022-10-23T07:10:09.643Z,2.37
2022-10-23T07:12:37.202Z,1.70
2022-10-23T07:15:07.365Z,2.60
2022-10-23T07:17:35.137Z,1.83
2022-10-23T07:20:02.691Z,1.80
2022-10-23T07:22:30.287Z,2.00
2022-10-23T07:24:57.905Z,2.40
2022-10-23T07:27:26.178Z,1.90
2022-10-23T07:29:53.812Z,2.03
2022-10-23T07:32:23.900Z,2.10
2022-10-23T07:34:51.551Z,2.20
2022-10-23T07:37:19.125Z,2.10
2022-10-23T07:39:46.689Z,1.93
2022-10-23T07:42:14.273Z,2.27
2022-10-23T07:44:41.820Z,2.07
2022-10-23T07:47:09.700Z,1.90
2022-10-23T07:49:38.592Z,2.07
2022-10-23T07:52:06.816Z,1.87
2022-10-23T07:54:34.502Z,2.20
2022-10-23T07:57:02.025Z,2.13
2022-10-23T07:59:29.562Z,2.40
2022-10-23T08:01:57.227Z,2.00
2022-10-23T08:04:25.408Z,2.10
2022-10-23T08:06:55.995Z,2.23
2022-10-23T08:09:23.813Z,2.33
2022-10-23T08:11:51.378Z,2.47
2022-10-23T08:14:18.947Z,2.07
2022-10-23T08:16:46.667Z,2.00
2022-10-23T08:19:14.527Z,2.00
2022-10-23T08:21:42.085Z,2.83
2022-10-23T08:24:13.859Z,2.10
2022-10-23T08:26:41.773Z,2.40
2022-10-23T08:29:09.357Z,2.20
2022-10-23T08:31:36.965Z,2.43
2022-10-23T08:34:04.532Z,2.17
2022-10-23T08:36:33.360Z,2.70
2022-10-23T08:39:01.068Z,2.20
2022-10-23T08:41:34.104Z,2.53
2022-10-23T08:44:08.452Z,2.30
2022-10-23T08:46:42.405Z,2.70
2022-10-23T08:49:30.629Z,2.53
2022-10-23T08:52:01.236Z,2.20
2022-10-23T08:54:40.432Z,2.47
2022-10-23T08:57:14.682Z,2.50
2022-10-23T08:59:48.167Z,2.80
2022-10-23T09:02:22.057Z,2.53
2022-10-23T09:04:52.924Z,2.50
2022-10-23T09:07:33.962Z,2.40
2022-10-23T09:10:19.237Z,2.60
2022-10-23T09:12:48.239Z,3.37
2022-10-23T09:15:29.258Z,2.43
2022-10-23T09:18:00.298Z,2.27
2022-10-23T09:20:34.179Z,2.73
2022-10-23T09:23:05.207Z,2.40
2022-10-23T09:25:38.502Z,2.17
2022-10-23T09:28:07.910Z,2.07
2022-10-23T09:30:37.333Z,2.73
2022-10-23T09:33:15.568Z,2.27
2022-10-23T09:35:55.192Z,2.60
2022-10-23T09:38:33.912Z,2.87
2022-10-23T09:41:06.979Z,2.60
2022-10-23T09:43:35.932Z,2.40
2022-10-23T09:46:06.316Z,2.50
2022-10-23T09:48:34.901Z,2.50
2022-10-23T09:51:05.299Z,2.50
2022-10-23T09:53:36.212Z,2.60
2022-10-23T09:56:07.790Z,2.87
2022-10-23T09:58:52.933Z,2.23
2022-10-23T10:01:25.194Z,2.20
2022-10-23T10:03:53.990Z,2.20
2022-10-23T10:06:27.045Z,2.57
2022-10-23T10:08:57.762Z,2.23
2022-10-23T10:11:31.706Z,2.40
2022-10-23T10:14:36.121Z,2.20
2022-10-23T10:17:13.116Z,2.20
2022-10-23T10:19:57.226Z,2.47
2022-10-23T10:22:31.798Z,3.10
2022-10-23T10:25:04.430Z,2.67
2022-10-23T10:27:44.514Z,1.87
2022-10-23T10:30:16.918Z,2.17
2022-10-23T10:32:51.162Z,2.13
2022-10-23T10:35:29.685Z,1.80
2022-10-23T10:38:19.963Z,2.10
2022-10-23T10:41:01.952Z,1.70
2022-10-23T10:43:40.438Z,2.50
2022-10-23T10:48:52.329Z,2.10
2022-10-23T10:51:27.886Z,2.30
2022-10-23T10:54:16.894Z,2.50
2022-10-23T10:56:46.361Z,2.40
2022-10-23T10:59:19.853Z,2.43
2022-10-23T11:01:53.621Z,2.37
2022-10-23T11:04:33.404Z,2.00
2022-10-23T11:07:06.631Z,2.13
2022-10-23T11:09:34.609Z,2.30
2022-10-23T11:12:02.185Z,2.67
2022-10-23T11:14:35.549Z,2.47
2022-10-23T11:17:09.874Z,2.37
2022-10-23T11:19:44.808Z,2.20
2022-10-23T11:22:22.639Z,2.70
2022-10-23T11:25:04.872Z,2.47
2022-10-23T11:27:44.705Z,3.00
2022-10-23T11:30:24.484Z,2.20
2022-10-23T11:33:13.322Z,2.20
2022-10-23T11:35:54.195Z,1.90
2022-10-23T11:38:27.323Z,2.53
2022-10-23T11:40:59.600Z,2.37
2022-10-23T11:43:29.015Z,2.10
2022-10-23T11:45:56.681Z,1.90
2022-10-23T11:48:37.585Z,1.70
2022-10-23T11:51:07.459Z,2.13
2022-10-23T11:53:40.685Z,2.10
2022-10-23T11:56:27.310Z,2.20
2022-10-23T11:58:56.735Z,2.37
2022-10-23T12:01:32.728Z,2.37
2022-10-23T12:04:03.845Z,2.47
2022-10-23T12:06:40.150Z,2.10
2022-10-23T12:09:18.690Z,2.40
2022-10-23T12:11:51.247Z,3.30
2022-10-23T12:14:38.565Z,2.87
2022-10-23T12:17:27.007Z,2.07
2022-10-23T12:19:56.340Z,2.27
2022-10-23T12:25:08.647Z,2.53
2022-10-23T12:27:43.016Z,2.50
2022-10-23T12:30:21.584Z,2.77
2022-10-23T12:33:18.533Z,2.27
2022-10-23T12:36:10.429Z,3.00
2022-10-23T12:38:44.885Z,1.73
2022-10-23T12:41:15.740Z,1.70
2022-10-23T12:43:45.125Z,1.80
2022-10-23T12:46:30.303Z,1.60
2022-10-23T12:48:58.888Z,1.70
2022-10-23T12:51:27.778Z,1.50
2022-10-23T12:53:56.994Z,2.40
2022-10-23T12:56:28.513Z,1.63
2022-10-23T12:59:00.750Z,1.60
2022-10-23T13:01:30.382Z,2.30
2022-10-23T13:04:00.502Z,1.60
2022-10-23T13:06:28.990Z,2.50
2022-10-23T13:08:58.369Z,1.90
2022-10-23T13:11:27.309Z,1.70
2022-10-23T13:13:55.074Z,1.73
2022-10-23T13:16:24.557Z,1.40
2022-10-23T13:18:53.969Z,1.90
2022-10-23T13:21:24.059Z,2.20
2022-10-23T13:23:54.806Z,2.23
2022-10-23T13:26:31.396Z,1.93
2022-10-23T13:28:59.427Z,1.90
2022-10-23T13:31:30.830Z,1.60
2022-10-23T13:34:26.459Z,1.87
2022-10-23T13:37:22.665Z,2.03
2022-10-23T13:40:00.946Z,1.80
2022-10-23T13:42:29.859Z,1.57
2022-10-23T13:44:57.452Z,1.60
2022-10-23T13:47:25.006Z,1.73
2022-10-23T13:49:52.565Z,1.57
2022-10-23T13:52:23.692Z,1.87
2022-10-23T13:54:51.363Z,1.67
2022-10-23T13:57:18.955Z,1.60
2022-10-23T13:59:47.846Z,1.50
2022-10-23T14:02:20.473Z,1.97
2022-10-23T14:04:48.159Z,1.77
2022-10-23T14:07:16.413Z,1.77
2022-10-23T14:09:44.616Z,2.20
2022-10-23T14:12:13.475Z,1.67
2022-10-23T14:14:41.061Z,2.00
2022-10-23T14:17:09.949Z,1.60
2022-10-23T14:22:05.299Z,1.73
2022-10-23T14:24:32.909Z,1.80
2022-10-23T14:27:00.533Z,1.90
2022-10-23T14:29:28.166Z,1.97
2022-10-23T14:31:55.773Z,2.00
2022-10-23T14:34:24.702Z,2.17
2022-10-23T14:37:04.046Z,1.77
2022-10-23T14:39:35.648Z,1.80
2022-10-23T14:42:03.368Z,1.97
2022-10-23T14:44:30.908Z,1.57
2022-10-23T14:46:59.539Z,1.83
2022-10-23T14:49:28.496Z,1.80
2022-10-23T14:51:56.074Z,1.87
2022-10-23T14:54:23.736Z,1.70
2022-10-23T14:56:51.286Z,1.90
2022-10-23T14:59:18.881Z,1.90
2022-10-23T15:01:48.484Z,1.60
2022-10-23T15:04:16.760Z,1.77
2022-10-23T15:06:46.463Z,1.83
2022-10-23T15:09:14.078Z,1.77
2022-10-23T15:11:41.703Z,1.77
2022-10-23T15:14:09.271Z,1.90
2022-10-23T15:16:41.019Z,1.87
2022-10-23T15:19:10.927Z,1.67
2022-10-23T15:21:41.228Z,1.67
2022-10-23T15:24:10.153Z,1.60
2022-10-23T15:26:38.412Z,1.80
2022-10-23T15:29:06.571Z,1.97
2022-10-23T15:31:46.923Z,1.63
2022-10-23T15:34:17.040Z,2.00
2022-10-23T15:36:46.788Z,1.90
2022-10-23T15:39:17.634Z,2.10
2022-10-23T15:41:46.206Z,1.60
2022-10-23T15:44:15.814Z,2.03
2022-10-23T15:46:43.978Z,1.80
2022-10-23T15:49:11.878Z,1.60
2022-10-23T15:51:40.483Z,2.23
2022-10-23T15:54:09.610Z,2.03
2022-10-23T15:56:38.492Z,1.80
2022-10-23T15:59:06.082Z,1.97
2022-10-23T16:01:33.700Z,2.23
2022-10-23T16:04:01.358Z,1.83
2022-10-23T16:06:29.044Z,2.00
2022-10-23T16:08:56.706Z,1.63
2022-10-23T16:11:26.673Z,1.73
2022-10-23T16:13:56.918Z,1.80
2022-10-23T16:16:24.901Z,1.63
2022-10-23T16:18:52.692Z,1.93
2022-10-23T16:21:22.839Z,2.27
2022-10-23T16:23:51.127Z,1.83
2022-10-23T16:26:19.394Z,1.77
2022-10-23T16:28:47.514Z,1.60
2022-10-23T16:31:20.551Z,2.00
2022-10-23T16:33:49.201Z,2.50
2022-10-23T16:36:17.756Z,1.60
2022-10-23T16:38:45.374Z,1.53
2022-10-23T16:41:12.977Z,1.77
2022-10-23T16:43:40.735Z,1.60
2022-10-23T16:46:13.317Z,1.70
2022-10-23T16:48:42.854Z,2.07
2022-10-23T16:51:12.636Z,2.00
2022-10-23T16:53:42.272Z,2.57
2022-10-23T16:56:11.931Z,2.37
2022-10-23T16:58:40.771Z,1.97
2022-10-23T17:01:10.459Z,1.90
2022-10-23T17:03:40.376Z,1.93
2022-10-23T17:06:11.677Z,1.80
2022-10-23T17:08:40.006Z,2.10
2022-10-23T17:11:09.427Z,2.40
2022-10-23T17:13:39.683Z,1.93
2022-10-23T17:16:10.284Z,4.27
2022-10-23T17:18:41.353Z,1.80
2022-10-23T17:21:13.503Z,2.30
2022-10-23T17:23:41.530Z,1.80
2022-10-23T17:26:10.214Z,1.87
2022-10-23T17:28:41.549Z,1.87
2022-10-23T17:31:14.042Z,1.60
2022-10-23T17:33:42.677Z,1.87
2022-10-23T17:36:12.640Z,1.93
2022-10-23T17:38:41.865Z,2.50
2022-10-23T17:41:09.493Z,2.07
2022-10-23T17:43:38.002Z,2.33
2022-10-23T17:46:07.262Z,2.30
2022-10-23T17:48:35.269Z,3.37
2022-10-23T17:51:04.746Z,3.40
2022-10-23T17:53:34.459Z,4.07
2022-10-23T17:56:03.242Z,4.20
2022-10-23T17:58:31.505Z,3.00
2022-10-23T18:01:05.366Z,3.40
2022-10-23T18:03:33.020Z,3.13
2022-10-23T18:06:07.290Z,3.07
2022-10-23T18:08:36.376Z,2.70
2022-10-23T18:11:04.988Z,2.80
2022-10-23T18:13:35.066Z,3.80
2022-10-23T18:16:03.700Z,3.23
2022-10-23T18:18:31.397Z,4.10
2022-10-23T18:20:59.742Z,3.47
2022-10-23T18:23:28.182Z,3.50
2022-10-23T18:26:00.076Z,3.73
2022-10-23T18:28:28.216Z,3.57
2022-10-23T18:30:57.067Z,3.43
2022-10-23T18:33:26.498Z,3.03
2022-10-23T18:35:54.091Z,4.83
2022-10-23T18:38:21.721Z,3.80
2022-10-23T18:40:55.428Z,3.63
2022-10-23T18:43:42.611Z,3.03
2022-10-23T18:46:12.186Z,3.80
2022-10-23T18:48:39.800Z,3.50
2022-10-23T18:51:15.704Z,3.17
2022-10-23T18:53:48.595Z,3.30
2022-10-23T18:56:22.072Z,4.27
2022-10-23T18:59:00.170Z,3.73
2022-10-23T19:01:29.915Z,3.70
2022-10-23T19:03:59.696Z,3.27
2022-10-23T19:06:27.357Z,4.50
2022-10-23T19:08:55.061Z,3.40
2022-10-23T19:11:24.654Z,3.90
2022-10-23T19:13:53.780Z,3.60
2022-10-23T19:16:25.050Z,3.90
2022-10-23T19:18:56.320Z,3.60
2022-10-23T19:21:31.410Z,3.63
2022-10-23T19:24:01.505Z,3.37
2022-10-23T19:26:31.195Z,3.67
2022-10-23T19:29:00.403Z,3.33
2022-10-23T19:31:28.087Z,4.10
2022-10-23T19:33:55.670Z,3.67
2022-10-23T19:36:23.816Z,4.00
2022-10-23T19:38:51.589Z,3.90
2022-10-23T19:41:19.160Z,3.90
2022-10-23T19:43:47.304Z,3.53
2022-10-23T19:46:16.225Z,3.70
2022-10-23T19:48:44.890Z,4.20
2022-10-23T19:51:13.776Z,4.40
2022-10-23T19:53:42.588Z,4.30
2022-10-23T19:56:13.068Z,4.03
2022-10-23T19:58:41.107Z,4.80
2022-10-23T20:01:10.956Z,3.87
2022-10-23T20:03:40.586Z,4.20
2022-10-23T20:06:12.290Z,5.63
2022-10-23T20:08:40.404Z,4.60
2022-10-23T20:11:08.544Z,4.77
2022-10-23T20:13:36.511Z,4.47
2022-10-23T20:16:04.199Z,4.60
2022-10-23T20:18:31.792Z,4.47
2022-10-23T20:21:01.934Z,4.37
2022-10-23T20:23:29.517Z,5.80
2022-10-23T20:26:05.209Z,3.97
2022-10-23T20:28:32.753Z,6.10
2022-10-23T20:31:00.759Z,4.90
2022-10-23T20:33:28.499Z,5.03
2022-10-23T20:38:30.359Z,3.97
2022-10-23T20:41:00.341Z,3.70
2022-10-23T20:43:28.032Z,3.83
2022-10-23T20:45:55.606Z,4.60
2022-10-23T20:48:23.166Z,4.80
2022-10-23T20:50:50.751Z,4.87
2022-10-23T20:53:18.359Z,4.50
2022-10-23T20:55:47.272Z,4.10
2022-10-23T20:58:14.797Z,5.30
2022-10-23T21:00:42.591Z,5.13
2022-10-23T21:03:10.265Z,4.40
2022-10-23T21:05:38.120Z,4.70
2022-10-23T21:08:06.157Z,5.03
2022-10-23T21:10:33.798Z,5.27
2022-10-23T21:13:02.768Z,3.80
2022-10-23T21:15:30.354Z,5.73
2022-10-23T21:18:04.938Z,4.77
2022-10-23T21:20:40.995Z,4.73
2022-10-23T21:23:08.611Z,4.50
2022-10-23T21:25:39.145Z,5.20
2022-10-23T21:28:09.465Z,5.57
2022-10-23T21:30:38.680Z,5.30
2022-10-23T21:33:06.910Z,3.70
2022-10-23T21:35:34.658Z,4.37
2022-10-23T21:38:02.348Z,4.57
2022-10-23T21:40:29.946Z,4.83
2022-10-23T21:42:57.533Z,4.73
2022-10-23T21:45:26.450Z,4.83
2022-10-23T21:47:53.991Z,4.00
2022-10-23T21:50:21.616Z,4.53
2022-10-23T21:52:51.895Z,4.80
2022-10-23T21:55:19.569Z,4.60
2022-10-23T21:57:47.521Z,4.33
2022-10-23T22:00:15.956Z,4.67
2022-10-23T22:02:45.096Z,4.30
2022-10-23T22:05:12.944Z,4.50
2022-10-23T22:07:40.708Z,4.80
2022-10-23T22:10:08.819Z,4.40
2022-10-23T22:12:36.413Z,4.50
2022-10-23T22:15:04.362Z,4.00
2022-10-23T22:17:31.904Z,4.87
2022-10-23T22:20:00.860Z,5.37
2022-10-23T22:22:28.358Z,4.90
2022-10-23T22:24:55.958Z,4.10
2022-10-23T22:27:23.706Z,4.50
2022-10-23T22:29:51.284Z,4.07
2022-10-23T22:32:18.920Z,4.50
2022-10-23T22:34:53.135Z,4.87
2022-10-23T22:37:22.609Z,4.87
2022-10-23T22:39:51.448Z,4.63
2022-10-23T22:42:19.199Z,5.00
2022-10-23T22:44:46.781Z,5.77
2022-10-23T22:47:14.423Z,5.63
2022-10-23T22:49:41.982Z,5.40
2022-10-23T22:52:09.561Z,5.07
2022-10-23T22:54:38.649Z,4.87
2022-10-23T22:57:06.159Z,4.27
2022-10-23T22:59:33.769Z,4.87
2022-10-23T23:02:01.344Z,4.37
2022-10-23T23:04:44.320Z,5.30
2022-10-23T23:07:13.703Z,5.00
2022-10-23T23:09:45.109Z,5.07
2022-10-23T23:12:14.648Z,4.70
2022-10-23T23:14:42.740Z,5.00
2022-10-23T23:17:11.187Z,4.67
2022-10-23T23:19:38.827Z,4.27
2022-10-23T23:22:06.704Z,4.67
2022-10-23T23:24:34.283Z,5.03
2022-10-23T23:27:03.279Z,4.80
2022-10-23T23:29:30.896Z,5.10
2022-10-23T23:31:58.487Z,5.00
2022-10-23T23:34:26.300Z,5.70
2022-10-23T23:36:53.961Z,6.17
2022-10-23T23:39:21.551Z,5.63
2022-10-23T23:41:49.182Z,5.30
2022-10-23T23:44:18.210Z,6.00
2022-10-23T23:46:45.793Z,5.33
2022-10-23T23:49:13.359Z,4.97
2022-10-23T23:51:41.006Z,5.67
2022-10-23T23:54:08.583Z,6.07
2022-10-23T23:56:36.178Z,5.63
2022-10-23T23:59:03.728Z,5.50
